createdAt,value
2019-01-09T00:01:31.552Z,96758.28
2019-01-09T00:04:03.047Z,96761.25
2019-01-09T00:06:34.647Z,96756.67
2019-01-09T00:09:08.640Z,96761.28
2019-01-09T00:11:40.236Z,96759.58
2019-01-09T00:14:11.637Z,96765.95
2019-01-09T00:16:43.251Z,96762.18
2019-01-09T00:19:14.920Z,96763.08
2019-01-09T00:21:46.518Z,96757.18
2019-01-09T00:24:18.076Z,96764.01
2019-01-09T00:26:49.586Z,96761.85
2019-01-09T00:29:21.342Z,96750.56
2019-01-09T00:31:52.927Z,96751.38
2019-01-09T00:34:24.647Z,96743.38
2019-01-09T00:36:56.279Z,96742.94
2019-01-09T00:39:27.830Z,96746.34
2019-01-09T00:41:59.418Z,96749.79
2019-01-09T00:44:31.010Z,96746.37
2019-01-09T00:47:02.402Z,96741.34
2019-01-09T00:49:33.901Z,96741.31
2019-01-09T00:52:05.379Z,96740.95
2019-01-09T00:54:36.836Z,96745.59
2019-01-09T00:57:08.797Z,96748.86
2019-01-09T00:59:40.348Z,96747.70
2019-01-09T01:02:52.226Z,96750.27
2019-01-09T01:05:58.704Z,96746.98
2019-01-09T01:09:10.040Z,96745.90
2019-01-09T01:12:16.430Z,96750.45
2019-01-09T01:15:28.118Z,96747.93
2019-01-09T01:18:38.671Z,96749.16
2019-01-09T01:21:15.642Z,96754.19
2019-01-09T01:24:34.677Z,96743.83
2019-01-09T01:27:29.280Z,96755.89
2019-01-09T01:30:27.531Z,96752.51
2019-01-09T01:33:42.418Z,96751.70
2019-01-09T01:36:49.119Z,96741.28
2019-01-09T01:39:32.712Z,96725.07
2019-01-09T01:42:36.269Z,96713.02
2019-01-09T01:46:00.173Z,96718.07
2019-01-09T01:49:03.079Z,96735.25
2019-01-09T01:52:27.170Z,96724.71
2019-01-09T01:55:48.318Z,96737.70
2019-01-09T01:58:37.738Z,96736.38
2019-01-09T02:01:46.131Z,96736.35
2019-01-09T02:05:15.609Z,96743.03
2019-01-09T02:08:23.548Z,96743.44
2019-01-09T02:11:18.578Z,96735.48
2019-01-09T02:14:23.488Z,96730.52
2019-01-09T02:17:22.726Z,96727.84
2019-01-09T02:20:22.575Z,96723.20
2019-01-09T02:23:36.440Z,96718.59
2019-01-09T02:26:41.365Z,96723.14
2019-01-09T02:29:38.316Z,96714.76
2019-01-09T02:32:33.699Z,96715.11
2019-01-09T02:35:05.274Z,96715.02
2019-01-09T02:37:36.667Z,96710.02
2019-01-09T02:40:08.538Z,96707.95
2019-01-09T02:42:40.109Z,96703.31
2019-01-09T02:45:11.760Z,96691.92
2019-01-09T02:47:43.392Z,96691.95
2019-01-09T02:50:14.950Z,96684.86
2019-01-09T02:52:46.408Z,96684.83
2019-01-09T02:55:17.925Z,96683.99
2019-01-09T02:57:56.501Z,96677.63
2019-01-09T03:00:22.625Z,96675.53
2019-01-09T03:02:54.076Z,96677.21
2019-01-09T03:05:25.586Z,96671.77
2019-01-09T03:07:57.175Z,96659.58
2019-01-09T03:10:28.671Z,96659.64
2019-01-09T03:13:00.341Z,96660.48
2019-01-09T03:15:31.919Z,96648.67
2019-01-09T03:18:03.550Z,96648.36
2019-01-09T03:20:35.112Z,96634.84
2019-01-09T03:23:06.535Z,96638.27
2019-01-09T03:25:38.210Z,96635.67
2019-01-09T03:28:09.671Z,96631.83
2019-01-09T03:30:41.310Z,96638.05
2019-01-09T03:33:13.126Z,96645.59
2019-01-09T03:35:44.653Z,96646.66
2019-01-09T03:38:16.211Z,96640.00
2019-01-09T03:40:47.750Z,96633.47
2019-01-09T03:43:19.323Z,96625.89
2019-01-09T03:45:50.828Z,96631.76
2019-01-09T03:48:22.318Z,96634.34
2019-01-09T03:50:53.770Z,96632.25
2019-01-09T03:53:25.168Z,96630.16
2019-01-09T03:55:56.679Z,96630.16
2019-01-09T03:58:28.145Z,96638.43
2019-01-09T04:00:59.816Z,96640.45
2019-01-09T04:03:31.399Z,96633.36
2019-01-09T04:06:02.970Z,96630.77
2019-01-09T04:08:34.486Z,96627.83
2019-01-09T04:11:05.928Z,96631.64
2019-01-09T04:13:37.418Z,96633.63
2019-01-09T04:16:08.849Z,96638.97
2019-01-09T04:18:40.444Z,96643.50
2019-01-09T04:21:11.976Z,96640.53
2019-01-09T04:23:43.611Z,96644.56
2019-01-09T04:26:15.201Z,96646.36
2019-01-09T04:28:46.774Z,96640.94
2019-01-09T04:31:18.300Z,96650.52
2019-01-09T04:33:49.848Z,96646.70
2019-01-09T04:36:21.404Z,96651.27
2019-01-09T04:38:53.006Z,96651.91
2019-01-09T04:41:24.708Z,96648.84
2019-01-09T04:43:56.405Z,96663.88
2019-01-09T04:46:28.007Z,96661.31
2019-01-09T04:48:59.626Z,96663.03
2019-01-09T04:51:31.235Z,96663.25
2019-01-09T04:54:02.799Z,96660.22
2019-01-09T04:56:34.287Z,96651.33
2019-01-09T04:59:06.927Z,96645.41
2019-01-09T05:01:38.508Z,96652.92
2019-01-09T05:04:10.084Z,96654.42
2019-01-09T05:06:41.705Z,96647.33
2019-01-09T05:09:13.250Z,96636.09
2019-01-09T05:11:44.946Z,96634.03
2019-01-09T05:14:16.524Z,96631.98
2019-01-09T05:16:48.096Z,96634.87
2019-01-09T05:19:19.516Z,96623.73
2019-01-09T05:21:51.062Z,96626.00
2019-01-09T05:24:22.603Z,96621.34
2019-01-09T05:26:54.083Z,96625.03
2019-01-09T05:29:25.486Z,96626.70
2019-01-09T05:31:57.027Z,96629.15
2019-01-09T05:34:28.637Z,96622.84
2019-01-09T05:37:09.190Z,96621.16
2019-01-09T05:39:39.649Z,96623.64
2019-01-09T05:42:06.557Z,96627.52
2019-01-09T05:44:37.987Z,96634.97
2019-01-09T05:47:09.727Z,96639.55
2019-01-09T05:49:41.146Z,96639.97
2019-01-09T05:52:12.660Z,96635.77
2019-01-09T05:54:44.113Z,96639.97
2019-01-09T05:57:15.520Z,96645.01
2019-01-09T05:59:47.003Z,96643.28
2019-01-09T06:02:18.570Z,96648.79
2019-01-09T06:04:50.039Z,96654.20
2019-01-09T06:07:21.611Z,96658.40
2019-01-09T06:09:53.191Z,96655.83
2019-01-09T06:12:24.830Z,96660.33
2019-01-09T06:14:56.271Z,96654.44
2019-01-09T06:17:27.876Z,96653.47
2019-01-09T06:19:59.427Z,96647.11
2019-01-09T06:22:30.943Z,96654.21
2019-01-09T06:25:02.473Z,96656.51
2019-01-09T06:27:34.077Z,96652.58
2019-01-09T06:30:05.927Z,96654.95
2019-01-09T06:32:37.518Z,96662.79
2019-01-09T06:35:09.100Z,96665.13
2019-01-09T06:37:40.509Z,96666.71
2019-01-09T06:40:12.049Z,96666.98
2019-01-09T06:42:43.517Z,96657.89
2019-01-09T06:45:14.907Z,96664.95
2019-01-09T06:47:46.414Z,96665.95
2019-01-09T06:50:20.187Z,96668.99
2019-01-09T06:52:51.712Z,96667.47
2019-01-09T06:55:23.151Z,96669.29
2019-01-09T06:57:54.688Z,96671.91
2019-01-09T07:00:26.170Z,96666.88
2019-01-09T07:02:57.620Z,96666.80
2019-01-09T07:05:28.989Z,96663.73
2019-01-09T07:08:00.499Z,96668.11
2019-01-09T07:10:31.971Z,96670.21
2019-01-09T07:13:03.570Z,96673.45
2019-01-09T07:15:35.109Z,96666.91
2019-01-09T07:18:06.658Z,96670.33
2019-01-09T07:20:38.159Z,96670.44
2019-01-09T07:23:09.652Z,96667.71
2019-01-09T07:25:41.187Z,96674.93
2019-01-09T07:28:12.710Z,96672.53
2019-01-09T07:30:44.373Z,96680.56
2019-01-09T07:33:16.149Z,96681.94
2019-01-09T07:35:47.861Z,96686.83
2019-01-09T07:38:19.436Z,96674.53
2019-01-09T07:40:50.973Z,96679.21
2019-01-09T07:43:22.410Z,96683.69
2019-01-09T07:45:54.090Z,96692.56
2019-01-09T07:48:25.629Z,96701.41
2019-01-09T07:50:57.136Z,96706.76
2019-01-09T07:53:28.615Z,96712.73
2019-01-09T07:55:59.931Z,96709.23
2019-01-09T07:58:31.352Z,96708.32
2019-01-09T08:01:02.774Z,96702.58
2019-01-09T08:03:35.594Z,96694.93
2019-01-09T08:06:07.126Z,96698.40
2019-01-09T08:08:38.594Z,96697.55
2019-01-09T08:11:10.063Z,96689.84
2019-01-09T08:13:41.499Z,96702.47
2019-01-09T08:16:13.017Z,96689.75
2019-01-09T08:18:44.596Z,96696.66
2019-01-09T08:21:15.998Z,96695.05
2019-01-09T08:23:47.522Z,96692.08
2019-01-09T08:26:19.010Z,96695.19
2019-01-09T08:28:51.747Z,96702.43
2019-01-09T08:31:23.137Z,96702.28
2019-01-09T08:33:54.599Z,96706.02
2019-01-09T08:36:26.080Z,96697.75
2019-01-09T08:38:57.489Z,96687.91
2019-01-09T08:41:29.149Z,96686.61
2019-01-09T08:44:00.737Z,96686.42
2019-01-09T08:46:32.311Z,96689.94
2019-01-09T08:49:03.761Z,96691.06
2019-01-09T08:51:35.381Z,96682.55
2019-01-09T08:54:06.878Z,96673.89
2019-01-09T08:56:39.639Z,96676.38
2019-01-09T08:59:11.018Z,96670.22
2019-01-09T09:01:42.624Z,96668.19
2019-01-09T09:04:14.271Z,96672.16
2019-01-09T09:06:45.807Z,96673.20
2019-01-09T09:09:19.191Z,96670.09
2019-01-09T09:11:50.605Z,96671.39
2019-01-09T09:14:22.111Z,96669.44
2019-01-09T09:16:53.510Z,96681.62
2019-01-09T09:19:25.018Z,96672.46
2019-01-09T09:21:56.451Z,96669.81
2019-01-09T09:24:27.827Z,96667.99
2019-01-09T09:26:59.548Z,96666.73
2019-01-09T09:29:32.177Z,96674.33
2019-01-09T09:32:04.065Z,96680.60
2019-01-09T09:34:35.647Z,96677.36
2019-01-09T09:37:07.067Z,96673.26
2019-01-09T09:39:39.661Z,96679.17
2019-01-09T09:42:11.221Z,96683.81
2019-01-09T09:44:43.158Z,96686.53
2019-01-09T09:47:14.661Z,96677.69
2019-01-09T09:49:46.661Z,96669.92
2019-01-09T09:52:18.298Z,96677.08
2019-01-09T09:54:49.908Z,96681.64
2019-01-09T09:57:23.054Z,96678.80
2019-01-09T09:59:54.529Z,96662.51
2019-01-09T10:02:25.949Z,96658.39
2019-01-09T10:04:57.559Z,96655.64
2019-01-09T10:07:29.011Z,96660.88
2019-01-09T10:10:00.574Z,96656.38
2019-01-09T10:12:32.017Z,96642.38
2019-01-09T10:15:03.524Z,96655.64
2019-01-09T10:17:35.002Z,96656.30
2019-01-09T10:20:10.066Z,96649.91
2019-01-09T10:22:41.712Z,96648.79
2019-01-09T10:25:13.898Z,96634.70
2019-01-09T10:27:45.270Z,96646.28
2019-01-09T10:30:18.721Z,96638.07
2019-01-09T10:32:50.266Z,96636.20
2019-01-09T10:35:22.045Z,96635.64
2019-01-09T10:37:53.576Z,96634.85
2019-01-09T10:40:25.342Z,96639.69
2019-01-09T10:42:56.917Z,96637.71
2019-01-09T10:45:28.559Z,96637.71
2019-01-09T10:48:00.062Z,96633.52
2019-01-09T10:50:31.446Z,96630.95
2019-01-09T10:53:02.861Z,96625.17
2019-01-09T10:55:34.365Z,96623.27
2019-01-09T10:58:05.908Z,96618.16
2019-01-09T11:00:37.439Z,96622.64
2019-01-09T11:03:08.833Z,96618.66
2019-01-09T11:05:40.254Z,96613.74
2019-01-09T11:08:11.725Z,96612.28
2019-01-09T11:10:43.223Z,96605.22
2019-01-09T11:13:14.616Z,96608.81
2019-01-09T11:15:46.120Z,96611.20
2019-01-09T11:18:17.666Z,96608.95
2019-01-09T11:20:49.238Z,96604.20
2019-01-09T11:23:20.879Z,96602.95
2019-01-09T11:25:52.346Z,96604.59
2019-01-09T11:28:23.852Z,96602.93
2019-01-09T11:30:55.321Z,96607.45
2019-01-09T11:33:26.697Z,96597.98
2019-01-09T11:35:58.255Z,96603.70
2019-01-09T11:38:29.774Z,96606.81
2019-01-09T11:41:01.330Z,96612.66
2019-01-09T11:43:32.717Z,96610.64
2019-01-09T11:46:04.169Z,96607.59
2019-01-09T11:48:35.697Z,96610.39
2019-01-09T11:51:07.202Z,96613.66
2019-01-09T11:53:38.588Z,96615.17
2019-01-09T11:56:10.067Z,96608.16
2019-01-09T11:58:41.541Z,96610.84
2019-01-09T12:01:13.033Z,96617.56
2019-01-09T12:03:44.519Z,96613.06
2019-01-09T12:06:17.084Z,96615.27
2019-01-09T12:08:49.464Z,96617.13
2019-01-09T12:11:21.090Z,96615.05
2019-01-09T12:13:53.445Z,96611.16
2019-01-09T12:16:25.115Z,96542.21
2019-01-09T12:18:57.432Z,96617.84
2019-01-09T12:21:31.532Z,96616.19
2019-01-09T12:24:03.109Z,96610.03
2019-01-09T12:26:34.604Z,96615.83
2019-01-09T12:29:06.144Z,96619.13
2019-01-09T12:31:37.712Z,96628.05
2019-01-09T12:34:09.160Z,96624.14
2019-01-09T12:36:40.663Z,96626.78
2019-01-09T12:39:13.291Z,96627.88
2019-01-09T12:41:45.394Z,96625.64
2019-01-09T12:44:16.889Z,96619.70
2019-01-09T12:46:48.326Z,96605.20
2019-01-09T12:49:19.905Z,96603.19
2019-01-09T12:51:51.218Z,96602.55
2019-01-09T12:54:22.579Z,96603.37
2019-01-09T12:56:54.091Z,96604.97
2019-01-09T12:59:25.621Z,96606.59
2019-01-09T13:01:56.910Z,96603.22
2019-01-09T13:04:28.329Z,96600.30
2019-01-09T13:06:59.635Z,96599.86
2019-01-09T13:09:31.073Z,96608.58
2019-01-09T13:12:02.535Z,96614.05
2019-01-09T13:14:34.110Z,96609.64
2019-01-09T13:17:11.894Z,96616.47
2019-01-09T13:19:38.730Z,96616.87
2019-01-09T13:22:10.246Z,96622.56
2019-01-09T13:24:41.669Z,96623.47
2019-01-09T13:27:15.026Z,96628.10
2019-01-09T13:29:46.404Z,96626.69
2019-01-09T13:32:17.758Z,96633.81
2019-01-09T13:34:49.173Z,96630.52
2019-01-09T13:37:20.617Z,96627.83
2019-01-09T13:39:51.951Z,96625.81
2019-01-09T13:42:24.661Z,96624.67
2019-01-09T13:44:56.024Z,96622.88
2019-01-09T13:47:27.927Z,96625.11
2019-01-09T13:49:59.414Z,96629.67
2019-01-09T13:52:30.993Z,96627.60
2019-01-09T13:55:02.453Z,96625.58
2019-01-09T13:57:33.881Z,96620.09
2019-01-09T14:00:06.451Z,96620.97
2019-01-09T14:02:37.882Z,96614.90
2019-01-09T14:05:09.540Z,96609.48
2019-01-09T14:07:40.981Z,96608.23
2019-01-09T14:10:14.734Z,96609.72
2019-01-09T14:12:46.219Z,96608.23
2019-01-09T14:15:19.532Z,96604.34
2019-01-09T14:17:50.904Z,96599.47
2019-01-09T14:20:22.535Z,96605.95
2019-01-09T14:22:54.061Z,96603.70
2019-01-09T14:25:25.495Z,96604.84
2019-01-09T14:27:57.048Z,96593.87
2019-01-09T14:30:29.829Z,96597.86
2019-01-09T14:33:01.727Z,96590.03
2019-01-09T14:35:33.037Z,96588.31
2019-01-09T14:38:04.538Z,96591.35
2019-01-09T14:40:37.264Z,96597.16
2019-01-09T14:43:08.853Z,96592.75
2019-01-09T14:45:40.206Z,96593.23
2019-01-09T14:48:11.463Z,96601.30
2019-01-09T14:50:42.796Z,96598.12
2019-01-09T14:53:14.173Z,96604.00
2019-01-09T14:55:46.351Z,96600.38
2019-01-09T14:58:17.690Z,96608.92
2019-01-09T15:00:49.078Z,96615.97
2019-01-09T15:03:20.658Z,96621.88
2019-01-09T15:05:52.228Z,96620.76
2019-01-09T15:08:24.293Z,96625.45
2019-01-09T15:10:55.780Z,96624.33
2019-01-09T15:13:27.267Z,96624.59
2019-01-09T15:15:58.539Z,96626.98
2019-01-09T15:18:30.009Z,96632.73
2019-01-09T15:21:01.602Z,96633.09
2019-01-09T15:23:34.304Z,96629.97
2019-01-09T15:26:05.740Z,96633.78
2019-01-09T15:28:37.245Z,96632.83
2019-01-09T15:31:08.728Z,96637.88
2019-01-09T15:33:40.172Z,96643.77
2019-01-09T15:36:11.532Z,96643.00
2019-01-09T15:38:43.097Z,96644.16
2019-01-09T15:41:14.406Z,96643.33
2019-01-09T15:43:45.950Z,96639.34
2019-01-09T15:46:17.424Z,96641.30
2019-01-09T15:48:48.842Z,96637.55
2019-01-09T15:51:20.314Z,96633.66
2019-01-09T15:53:52.910Z,96630.80
2019-01-09T15:56:24.430Z,96630.95
2019-01-09T15:58:56.462Z,96630.69
2019-01-09T16:01:30.223Z,96628.26
2019-01-09T16:04:03.120Z,96622.62
2019-01-09T16:06:38.912Z,96618.99
2019-01-09T16:09:11.743Z,96615.98
2019-01-09T16:11:45.213Z,96614.98
2019-01-09T16:14:20.521Z,96606.66
2019-01-09T16:16:52.143Z,96601.69
2019-01-09T16:19:23.613Z,96605.75
2019-01-09T16:21:55.194Z,96600.55
2019-01-09T16:24:26.461Z,96601.94
2019-01-09T16:26:57.947Z,96600.09
2019-01-09T16:29:29.440Z,96593.97
2019-01-09T16:32:00.816Z,96592.49
2019-01-09T16:34:32.365Z,96591.98
2019-01-09T16:37:05.429Z,96600.83
2019-01-09T16:39:36.947Z,96593.81
2019-01-09T16:42:08.571Z,96601.01
2019-01-09T16:44:40.104Z,96602.80
2019-01-09T16:47:11.601Z,96597.78
2019-01-09T16:49:43.636Z,96599.17
2019-01-09T16:52:14.992Z,96604.50
2019-01-09T16:54:46.469Z,96601.70
2019-01-09T16:57:17.956Z,96599.85
2019-01-09T16:59:49.557Z,96600.33
2019-01-09T17:02:20.981Z,96597.56
2019-01-09T17:04:52.442Z,96599.16
2019-01-09T17:07:24.029Z,96596.17
2019-01-09T17:10:01.295Z,96596.81
2019-01-09T17:12:33.111Z,96596.73
2019-01-09T17:15:06.525Z,96596.15
2019-01-09T17:17:39.379Z,96592.66
2019-01-09T17:20:13.968Z,96589.36
2019-01-09T17:22:45.418Z,96601.19
2019-01-09T17:25:16.823Z,96592.29
2019-01-09T17:27:49.448Z,96586.30
2019-01-09T17:30:23.161Z,96589.59
2019-01-09T17:32:54.579Z,96592.73
2019-01-09T17:35:25.950Z,96588.08
2019-01-09T17:37:58.764Z,96589.59
2019-01-09T17:40:30.260Z,96590.31
2019-01-09T17:43:01.640Z,96585.15
2019-01-09T17:45:33.161Z,96585.08
2019-01-09T17:48:04.823Z,96583.36
2019-01-09T17:50:37.430Z,96583.09
2019-01-09T17:53:09.048Z,96581.19
2019-01-09T17:55:40.528Z,96583.09
2019-01-09T17:58:11.950Z,96579.20
2019-01-09T18:00:43.637Z,96583.33
2019-01-09T18:03:15.158Z,96577.56
2019-01-09T18:05:46.590Z,96570.85
2019-01-09T18:08:18.228Z,96569.26
2019-01-09T18:10:50.611Z,96575.17
2019-01-09T18:13:22.210Z,96573.91
2019-01-09T18:15:53.622Z,96570.38
2019-01-09T18:18:25.024Z,96570.33
2019-01-09T18:20:56.330Z,96572.59
2019-01-09T18:23:27.607Z,96563.92
2019-01-09T18:25:59.100Z,96575.73
2019-01-09T18:28:30.389Z,96566.83
2019-01-09T18:31:50.924Z,96572.83
2019-01-09T18:34:30.825Z,96570.80
2019-01-09T18:37:29.731Z,96577.37
2019-01-09T18:40:27.460Z,96574.95
2019-01-09T18:43:39.251Z,96581.27
2019-01-09T18:46:53.181Z,96575.42
2019-01-09T18:50:00.981Z,96577.92
2019-01-09T18:52:45.812Z,96573.52
2019-01-09T18:55:17.356Z,96573.75
2019-01-09T18:57:48.839Z,96580.70
2019-01-09T19:00:23.170Z,96572.03
2019-01-09T19:02:54.700Z,96571.90
2019-01-09T19:05:26.298Z,96567.36
2019-01-09T19:07:57.751Z,96562.02
2019-01-09T19:10:29.567Z,96563.06
2019-01-09T19:13:00.961Z,96556.89
2019-01-09T19:15:32.460Z,96560.55
2019-01-09T19:18:03.861Z,96563.05
2019-01-09T19:20:35.222Z,96559.06
2019-01-09T19:23:06.541Z,96559.16
2019-01-09T19:25:46.859Z,96560.14
2019-01-09T19:28:24.584Z,96552.66
2019-01-09T19:30:57.022Z,96552.20
2019-01-09T19:33:29.646Z,96547.56
2019-01-09T19:36:01.065Z,96548.09
2019-01-09T19:38:32.503Z,96544.98
2019-01-09T19:41:03.964Z,96541.95
2019-01-09T19:43:35.441Z,96539.66
2019-01-09T19:46:07.093Z,96542.96
2019-01-09T19:48:38.504Z,96551.35
2019-01-09T19:51:17.310Z,96536.95
2019-01-09T19:53:45.421Z,96532.55
2019-01-09T19:56:16.934Z,96526.30
2019-01-09T19:58:49.892Z,96525.48
2019-01-09T20:01:21.420Z,96525.78
2019-01-09T20:03:52.844Z,96526.83
2019-01-09T20:06:25.741Z,96517.91
2019-01-09T20:08:57.360Z,96514.18
2019-01-09T20:11:28.935Z,96507.72
2019-01-09T20:14:00.498Z,96501.96
2019-01-09T20:16:32.060Z,96506.27
2019-01-09T20:19:03.466Z,96492.78
2019-01-09T20:21:34.930Z,96494.36
2019-01-09T20:24:06.578Z,96481.93
2019-01-09T20:26:38.038Z,96480.05
2019-01-09T20:29:09.380Z,96464.22
2019-01-09T20:31:40.936Z,96472.02
2019-01-09T20:34:12.534Z,96470.58
2019-01-09T20:36:44.101Z,96455.38
2019-01-09T20:39:15.546Z,96459.72
2019-01-09T20:41:47.208Z,96461.11
2019-01-09T20:44:18.844Z,96451.13
2019-01-09T20:46:50.696Z,96466.75
2019-01-09T20:49:22.360Z,96445.25
2019-01-09T20:51:54.073Z,96446.95
2019-01-09T20:54:25.441Z,96449.64
2019-01-09T20:56:59.532Z,96456.94
2019-01-09T20:59:31.390Z,96454.86
2019-01-09T21:02:02.960Z,96442.47
2019-01-09T21:04:34.590Z,96443.80
2019-01-09T21:07:14.716Z,96446.95
2019-01-09T21:09:49.227Z,96433.90
2019-01-09T21:12:20.597Z,96433.52
2019-01-09T21:14:52.196Z,96424.97
2019-01-09T21:17:41.267Z,96420.64
2019-01-09T21:20:15.441Z,96416.97
2019-01-09T21:22:47.148Z,96409.61
2019-01-09T21:25:19.316Z,96427.02
2019-01-09T21:27:50.921Z,96439.23
2019-01-09T21:30:24.073Z,96419.75
2019-01-09T21:32:55.852Z,96421.29
2019-01-09T21:35:27.390Z,96407.56
2019-01-09T21:38:00.262Z,96391.57
2019-01-09T21:40:32.130Z,96381.56
2019-01-09T21:43:03.646Z,96384.52
2019-01-09T21:45:35.153Z,96425.55
2019-01-09T21:48:06.915Z,96386.53
2019-01-09T21:50:38.612Z,96389.22
2019-01-09T21:53:10.030Z,96383.20
2019-01-09T21:55:41.507Z,96377.11
2019-01-09T21:58:12.922Z,96378.59
2019-01-09T22:00:44.490Z,96359.16
2019-01-09T22:03:16.079Z,96358.37
2019-01-09T22:05:48.805Z,96359.41
2019-01-09T22:08:20.202Z,96355.96
2019-01-09T22:10:51.722Z,96347.38
2019-01-09T22:13:23.254Z,96361.95
2019-01-09T22:15:54.691Z,96348.31
2019-01-09T22:18:26.108Z,96346.30
2019-01-09T22:20:57.480Z,96342.72
2019-01-09T22:23:29.097Z,96349.73
2019-01-09T22:26:00.712Z,96343.65
2019-01-09T22:28:32.252Z,96358.91
2019-01-09T22:31:06.363Z,96341.69
2019-01-09T22:33:37.793Z,96336.13
2019-01-09T22:36:09.309Z,96342.61
2019-01-09T22:38:40.902Z,96327.05
2019-01-09T22:41:12.420Z,96331.95
2019-01-09T22:43:43.767Z,96338.62
2019-01-09T22:46:15.201Z,96340.92
2019-01-09T22:48:46.545Z,96337.73
2019-01-09T22:51:18.249Z,96328.80
2019-01-09T22:53:49.503Z,96351.71
2019-01-09T22:56:20.992Z,96332.09
2019-01-09T22:58:52.471Z,96328.61
2019-01-09T23:01:36.265Z,96318.11
2019-01-09T23:04:09.991Z,96325.16
2019-01-09T23:06:53.135Z,96329.28
2019-01-09T23:09:41.011Z,96308.77
2019-01-09T23:12:21.014Z,96312.07
2019-01-09T23:14:47.539Z,96296.28
2019-01-09T23:17:18.981Z,96305.56
2019-01-09T23:19:50.160Z,96311.13
2019-01-09T23:22:21.500Z,96294.81
2019-01-09T23:24:52.866Z,96290.19
2019-01-09T23:27:24.311Z,96279.59
2019-01-09T23:29:55.759Z,96297.56
2019-01-09T23:32:27.091Z,96290.09
2019-01-09T23:34:58.405Z,96286.89
2019-01-09T23:37:29.779Z,96282.06
2019-01-09T23:40:01.460Z,96282.33
2019-01-09T23:42:32.821Z,96288.07
2019-01-09T23:45:04.150Z,96282.96
2019-01-09T23:47:35.487Z,96284.78
2019-01-09T23:50:07.309Z,96283.80
2019-01-09T23:52:38.652Z,96283.63
2019-01-09T23:55:10.141Z,96274.05
2019-01-09T23:57:41.418Z,96285.54
